Terminal Aerodrome Forecast
Issued by NWS

Home | Current Version | Previous Version | Text Only | Print | Product List | Glossary On
Versions: 1 2 3 4 5 6 7 8 9 10 11 12 13 14 15 16 17 18 19 20 21 22 23 24 25 26 27 28 29
000
FTUS43 KABR 010500 CCA
TAFATY
TAF COR
KATY 010548Z 0106/0206 31006KT P6SM BKN100
      TEMPO 0106/0108 BKN015
     FM011800 27014KT P6SM VCSH BKN070
     FM020200 VRB04KT P6SM SCT250=

USA.gov is the U.S. government's official web portal to all federal, state and local government web resources and services.